EmailTwitter


Observations de surface / Québec / CYUL (71627)

Régions: Québec | Canada | États-Unis | Europe | France | UK | Ailleurs
Station
Affichage
Infos & localisation pour CYUL (71627) | Aide pour décoder les METARs

Observations prises le 2017-12-12 à 10H08 UTC à MONTREAL INTL A, QB (CYUL)

Obstacle(s) à la visibilité: faible neige et poudrerie basse.

Température: -10.0 Celsius

Point de rosée: -13.0 Celsius

Humidité relative: 79%

Facteur vent: -18.

Facteur vent (rafales): -20.

Vents: Nord-est à 22 km/h ou 12 noeuds.

Rafale du vent: 35 km/h ou 19 noeuds.

Pression au niveau moyen de la mer: 100.90 kilopascals.

Calage altimétrique: 100.85 kilopascals ou 29.78 pouces de mercure.

Visibilité horizontale: 2.00 milles terrestres ou 3.20 kilomètres.

Observation METAR:

CYUL 121008Z 04012G19KT 2SM -SN DRSN VV011 M10/M13 A2978 RMK SN8 SLP090=